Time;durP1;ratioP1;P1;durP2;ratioP2;P2;SDS_P1;SDS_P2;PMS_P1;PMS_P2;Temp;Humidity;BMP_temperature;BMP_pressure;BME280_temperature;BME280_humidity;BME280_pressure;Samples;Min_cycle;Max_cycle;Signal;HPM_P1;HPM_P2
2021/12/08 00:01:23;;;;;;;0.60;0.60;;;7.40;99.90;7.20;98957.00;;;;5057633;28;20661;-74
2021/12/08 00:03:53;;;;;;;0.87;0.87;;;7.40;99.90;7.20;98951.00;;;;5074575;28;20170;-74
2021/12/08 00:06:24;;;;;;;0.90;0.90;;;7.40;99.90;7.40;98956.00;;;;5057563;28;20212;-74
2021/12/08 00:09:17;;;;;;;0.60;0.60;;;7.40;99.90;7.40;98959.00;;;;5073905;28;20239;-74
2021/12/08 00:14:37;;;;;;;0.60;0.60;;;7.50;99.90;7.60;98973.00;;;;5074256;28;20249;-76
2021/12/08 00:17:06;;;;;;;0.60;0.60;;;7.60;99.90;7.70;98932.00;;;;5073696;28;20174;-76
2021/12/08 00:19:38;;;;;;;0.60;0.60;;;7.70;99.90;8.00;98968.00;;;;5071985;28;20268;-76
2021/12/08 00:22:04;;;;;;;0.60;0.60;;;7.80;99.90;7.80;98965.00;;;;5074016;28;20634;-76
2021/12/08 00:24:32;;;;;;;0.70;0.70;;;7.70;99.90;7.60;98963.00;;;;5074925;28;20193;-76
2021/12/08 00:26:58;;;;;;;1.30;1.30;;;7.80;99.90;7.50;98953.00;;;;5075040;28;20645;-76
2021/12/08 00:29:24;;;;;;;0.60;0.60;;;7.70;99.90;7.40;98949.00;;;;5073796;28;20189;-77
2021/12/08 00:31:56;;;;;;;0.60;0.60;;;7.60;99.90;7.50;98924.00;;;;5073043;28;20255;-77
2021/12/08 00:34:26;;;;;;;0.70;0.70;;;7.60;99.90;7.20;98968.00;;;;5074186;28;20177;-77
2021/12/08 00:36:58;;;;;;;0.70;0.70;;;7.50;99.90;7.30;98978.00;;;;5074075;28;20193;-77
2021/12/08 00:39:26;;;;;;;0.60;0.60;;;7.50;99.90;7.20;98985.00;;;;5073848;28;20227;-77
2021/12/08 00:41:55;;;;;;;0.60;0.60;;;7.50;99.90;7.40;98986.00;;;;5073666;28;20186;-77
2021/12/08 00:44:22;;;;;;;0.50;0.50;;;7.60;99.90;7.70;98994.00;;;;5073800;28;20201;-77
2021/12/08 00:46:52;;;;;;;0.60;0.60;;;7.60;99.90;8.00;99005.00;;;;5072634;28;20476;-78
2021/12/08 00:49:27;;;;;;;0.60;0.60;;;7.70;99.90;7.60;98986.00;;;;5072077;28;20177;-78
2021/12/08 00:52:15;;;;;;;3.50;1.80;;;7.70;99.90;7.20;98996.00;;;;5056820;28;20661;-78
2021/12/08 00:54:44;;;;;;;1.23;1.13;;;7.60;99.90;7.60;99004.00;;;;5073015;28;20201;-77
2021/12/08 00:57:12;;;;;;;3.13;1.73;;;7.60;99.90;7.70;99008.00;;;;5072394;28;20180;-76
2021/12/08 00:59:38;;;;;;;1.00;1.00;;;7.60;99.90;7.50;98992.00;;;;5074517;28;20182;-77
2021/12/08 01:02:05;;;;;;;0.67;0.67;;;7.50;99.90;7.30;99003.00;;;;5072811;28;20171;-78
2021/12/08 01:04:36;;;;;;;0.60;0.60;;;7.50;99.90;7.50;99021.00;;;;5055844;28;20178;-77
2021/12/08 01:07:03;;;;;;;0.93;0.93;;;7.50;99.90;7.70;98984.00;;;;5073198;28;20182;-77
2021/12/08 01:09:31;;;;;;;2.10;1.53;;;7.60;99.90;7.40;99006.00;;;;5073112;28;20209;-77
2021/12/08 01:12:01;;;;;;;0.60;0.60;;;7.60;99.90;7.30;98924.00;;;;5072602;28;20217;-77
2021/12/08 01:14:29;;;;;;;2.47;1.47;;;7.50;99.90;7.30;98986.00;;;;5056224;28;20509;-78
2021/12/08 01:16:56;;;;;;;0.50;0.50;;;7.40;99.90;7.00;99002.00;;;;5072853;28;20256;-77
2021/12/08 01:19:24;;;;;;;0.60;0.60;;;7.30;99.90;7.30;99015.00;;;;5073005;28;20550;-77
2021/12/08 01:21:51;;;;;;;1.53;1.43;;;7.40;99.90;7.40;98982.00;;;;5074265;28;20255;-78
2021/12/08 01:24:17;;;;;;;8.00;1.27;;;7.40;99.90;7.40;99001.00;;;;5071572;28;20664;-77
2021/12/08 01:26:46;;;;;;;0.60;0.60;;;7.50;99.90;6.90;99004.00;;;;5071652;28;20219;-77
2021/12/08 01:29:12;;;;;;;0.50;0.50;;;7.30;99.90;6.90;98988.00;;;;5072819;28;20184;-77
2021/12/08 01:31:41;;;;;;;0.50;0.50;;;7.20;99.90;7.10;99016.00;;;;5071950;28;20310;-77
2021/12/08 01:34:10;;;;;;;0.80;0.80;;;7.20;99.90;7.00;98993.00;;;;5072039;28;20186;-77
2021/12/08 01:36:37;;;;;;;0.60;0.60;;;7.20;99.90;6.90;99015.00;;;;5072559;28;20180;-77
2021/12/08 01:39:07;;;;;;;0.87;0.87;;;7.20;99.90;6.80;99028.00;;;;5072229;28;20197;-77
2021/12/08 01:41:35;;;;;;;0.80;0.80;;;7.20;99.90;7.20;98983.00;;;;5055181;28;20740;-77
2021/12/08 01:46:49;;;;;;;0.97;0.90;;;7.40;99.90;6.80;99041.00;;;;5073137;28;20173;-77
2021/12/08 01:49:15;;;;;;;0.50;0.50;;;7.30;99.90;7.20;99035.00;;;;5070899;28;20182;-76
2021/12/08 01:51:40;;;;;;;1.17;0.70;;;7.40;99.90;7.40;99023.00;;;;5072441;28;20257;-76
2021/12/08 01:54:06;;;;;;;0.53;0.53;;;7.60;99.90;7.20;99041.00;;;;5055216;28;20203;-79
2021/12/08 01:56:34;;;;;;;0.50;0.50;;;7.50;99.90;7.20;99064.00;;;;5055105;28;20345;-78
2021/12/08 01:59:07;;;;;;;0.70;0.70;;;7.50;99.90;6.90;99052.00;;;;5055933;28;20189;-77
2021/12/08 02:01:43;;;;;;;0.50;0.50;;;7.40;99.90;7.00;99048.00;;;;5055226;28;20608;-77
2021/12/08 02:04:09;;;;;;;0.50;0.50;;;7.30;99.90;7.10;99062.00;;;;5055401;28;20238;-77
2021/12/08 02:06:43;;;;;;;0.50;0.50;;;7.30;99.90;7.40;99051.00;;;;5055204;28;20178;-77
2021/12/08 02:09:16;;;;;;;0.70;0.70;;;7.50;99.90;7.20;99060.00;;;;5055479;28;20178;-77
2021/12/08 02:11:46;;;;;;;0.60;0.60;;;7.40;99.90;7.50;99049.00;;;;5055139;28;20205;-77
2021/12/08 02:14:14;;;;;;;0.70;0.70;;;7.40;99.90;7.30;99028.00;;;;5038862;28;20174;-77
2021/12/08 02:16:39;;;;;;;1.50;1.33;;;7.40;99.90;7.00;99061.00;;;;5054547;28;20177;-77
2021/12/08 02:19:13;;;;;;;0.50;0.50;;;7.40;99.90;7.30;99061.00;;;;5054630;28;20638;-78
2021/12/08 02:21:51;;;;;;;0.57;0.57;;;7.30;99.90;7.00;99055.00;;;;5055060;28;20192;-77
2021/12/08 02:24:22;;;;;;;0.50;0.50;;;7.20;99.90;6.90;99044.00;;;;5054575;28;20194;-77
2021/12/08 02:26:52;;;;;;;0.50;0.50;;;7.10;99.90;6.70;99051.00;;;;5038419;28;20185;-77
2021/12/08 02:29:33;;;;;;;0.70;0.70;;;7.00;99.90;7.00;99034.00;;;;5054452;28;20199;-77
2021/12/08 02:32:41;;;;;;;1.37;1.00;;;7.00;99.90;6.60;99062.00;;;;5054856;28;20211;-77
2021/12/08 02:48:54;;;;;;;0.50;0.50;;;6.90;99.90;6.60;99017.00;;;;5073048;28;20249;-77
2021/12/08 02:51:22;;;;;;;0.60;0.60;;;6.80;99.90;6.40;99074.00;;;;5053912;28;20213;-76
2021/12/08 02:53:48;;;;;;;0.50;0.50;;;6.70;99.90;6.40;99023.00;;;;5037243;28;20176;-77
2021/12/08 02:56:18;;;;;;;0.40;0.40;;;6.70;99.90;6.40;99081.00;;;;5054809;28;20640;-76
2021/12/08 02:58:45;;;;;;;0.50;0.50;;;6.70;99.90;6.60;99081.00;;;;5055169;28;20559;-77
2021/12/08 03:01:12;;;;;;;4.00;0.60;;;6.70;99.90;6.30;99077.00;;;;5054886;28;20180;-78
2021/12/08 03:03:41;;;;;;;0.50;0.50;;;6.70;99.90;6.10;99032.00;;;;5054294;28;20191;-78
2021/12/08 03:06:07;;;;;;;0.60;0.60;;;6.50;99.90;6.10;99076.00;;;;5054904;28;20287;-77
2021/12/08 03:08:42;;;;;;;0.40;0.40;;;6.50;99.90;6.00;99089.00;;;;5055429;28;20262;-77
2021/12/08 03:11:10;;;;;;;0.50;0.50;;;6.50;99.90;6.20;99087.00;;;;5054664;28;20181;-78
2021/12/08 03:14:00;;;;;;;0.40;0.40;;;6.50;99.90;6.10;99103.00;;;;5053439;28;20192;-78
2021/12/08 03:16:31;;;;;;;0.40;0.40;;;6.50;99.90;6.20;99092.00;;;;5054674;28;20186;-77
2021/12/08 03:18:57;;;;;;;0.50;0.50;;;6.50;99.90;6.40;99092.00;;;;5040027;28;20179;-78
2021/12/08 03:21:31;;;;;;;0.40;0.40;;;6.50;99.90;6.10;99048.00;;;;5057827;28;20217;-78
2021/12/08 03:30:13;;;;;;;0.40;0.40;;;6.30;99.90;6.10;99084.00;;;;5057935;28;20194;-78
2021/12/08 03:32:16;;;;;;;0.40;0.40;;;6.40;99.90;6.00;99091.00;;;;5043447;28;20217;-77
2021/12/08 03:34:52;;;;;;;0.50;0.50;;;6.30;99.90;5.80;99087.00;;;;5058645;28;20526;-77
2021/12/08 03:37:28;;;;;;;0.50;0.50;;;6.20;99.90;6.00;99095.00;;;;5058498;28;20187;-77
2021/12/08 03:40:06;;;;;;;0.70;0.60;;;6.30;99.90;5.80;99083.00;;;;5057301;28;20263;-77
2021/12/08 03:42:37;;;;;;;0.70;0.63;;;6.20;99.90;5.80;99088.00;;;;5058077;28;20210;-77
2021/12/08 03:45:37;;;;;;;0.40;0.40;;;6.20;99.90;6.00;99095.00;;;;5057645;28;20565;-78
2021/12/08 03:48:10;;;;;;;0.47;0.47;;;6.20;99.90;5.90;99072.00;;;;5065283;28;20190;-78
2021/12/08 03:50:40;;;;;;;2.53;0.70;;;6.20;99.90;5.90;99089.00;;;;5057639;28;20738;-78
2021/12/08 03:53:16;;;;;;;0.47;0.47;;;6.20;99.90;5.80;99087.00;;;;5039590;28;20300;-78
2021/12/08 03:55:50;;;;;;;1.03;1.03;;;6.20;99.90;5.80;99078.00;;;;5075684;28;20261;-77
2021/12/08 03:58:20;;;;;;;0.40;0.40;;;6.10;99.90;5.60;99083.00;;;;5073323;28;20180;-78
2021/12/08 04:00:53;;;;;;;3.70;0.90;;;6.00;99.90;5.50;99078.00;;;;5058200;28;20188;-78
2021/12/08 04:03:25;;;;;;;1.00;0.90;;;6.00;99.90;5.40;99099.00;;;;5057516;28;20206;-78
2021/12/08 04:05:58;;;;;;;0.90;0.90;;;5.90;99.90;5.60;99081.00;;;;5073070;28;20719;-78
2021/12/08 04:08:40;;;;;;;1.57;1.50;;;5.90;99.90;5.50;99093.00;;;;5074377;28;20656;-79
2021/12/08 04:11:12;;;;;;;0.30;0.30;;;6.00;99.90;5.50;99105.00;;;;5072911;28;20200;-79
2021/12/08 04:13:50;;;;;;;0.40;0.40;;;5.90;99.90;5.60;99086.00;;;;5072870;28;20171;-79
2021/12/08 04:16:32;;;;;;;1.37;1.23;;;5.90;99.90;5.40;99095.00;;;;5073941;28;20203;-79
2021/12/08 04:19:03;;;;;;;0.40;0.40;;;5.90;99.90;5.60;99115.00;;;;5073011;28;20181;-79
2021/12/08 04:21:33;;;;;;;0.70;0.70;;;5.90;99.90;5.50;99107.00;;;;5057622;28;20188;-79
2021/12/08 04:24:04;;;;;;;0.60;0.60;;;5.90;99.90;5.40;99097.00;;;;5073095;28;20648;-79
2021/12/08 04:26:55;;;;;;;0.40;0.40;;;5.80;99.90;5.30;99109.00;;;;5086517;28;20286;-79
2021/12/08 04:29:30;;;;;;;1.43;0.43;;;5.80;99.90;5.50;99110.00;;;;5072910;28;20280;-79
2021/12/08 04:31:57;;;;;;;0.90;0.90;;;5.90;99.90;5.40;99121.00;;;;5072469;28;20223;-79
2021/12/08 04:34:34;;;;;;;0.60;0.60;;;5.80;99.90;5.30;99111.00;;;;5073252;28;20629;-79
2021/12/08 04:37:16;;;;;;;3.07;1.10;;;5.80;99.90;5.10;99111.00;;;;5073924;28;20165;-79
2021/12/08 04:43:15;;;;;;;0.43;0.40;;;5.80;99.90;5.40;99124.00;;;;5073503;28;20199;-78
2021/12/08 04:45:36;;;;;;;0.50;0.50;;;5.80;99.90;5.30;99135.00;;;;5067752;28;20196;-78
2021/12/08 05:10:16;;;;;;;0.40;0.40;;;5.60;99.90;5.20;99115.00;;;;5073463;28;20767;-79
2021/12/08 05:12:48;;;;;;;0.50;0.50;;;5.60;99.90;5.10;99150.00;;;;5071920;28;20207;-79
2021/12/08 05:15:26;;;;;;;0.60;0.60;;;5.50;99.90;5.20;99173.00;;;;5072801;28;20198;-78
2021/12/08 05:18:25;;;;;;;0.40;0.40;;;5.60;99.90;5.00;99183.00;;;;5073036;28;20181;-78
2021/12/08 05:21:16;;;;;;;0.50;0.50;;;5.50;99.90;5.10;99168.00;;;;5071821;28;20599;-77
2021/12/08 05:24:07;;;;;;;0.40;0.40;;;5.50;99.90;5.20;99161.00;;;;5089248;28;20181;-77
2021/12/08 05:26:53;;;;;;;0.50;0.50;;;5.50;99.90;5.10;99163.00;;;;5072930;28;20183;-77
2021/12/08 05:29:26;;;;;;;0.50;0.50;;;5.50;99.90;5.00;99171.00;;;;5072455;28;20182;-77
2021/12/08 05:32:00;;;;;;;1.53;0.70;;;5.50;99.90;5.10;99155.00;;;;5055721;28;20222;-78
2021/12/08 05:34:27;;;;;;;1.30;0.90;;;5.50;99.90;5.10;99174.00;;;;5072840;28;20163;-78
2021/12/08 05:36:54;;;;;;;1.13;1.03;;;5.50;99.90;5.20;99178.00;;;;5072092;28;20189;-78
2021/12/08 05:39:28;;;;;;;0.40;0.40;;;5.60;99.90;5.20;99169.00;;;;5072392;28;20588;-78
2021/12/08 05:42:09;;;;;;;0.50;0.50;;;5.60;99.90;5.10;99178.00;;;;5054396;28;20184;-78
2021/12/08 05:44:39;;;;;;;2.27;0.47;;;5.60;99.90;5.10;99169.00;;;;5071667;28;20178;-78
2021/12/08 05:47:20;;;;;;;0.50;0.50;;;5.60;99.90;5.50;99193.00;;;;5070788;28;20181;-78
2021/12/08 05:49:47;;;;;;;0.70;0.63;;;5.60;99.90;5.20;99154.00;;;;5072419;28;20157;-76
2021/12/08 05:52:20;;;;;;;0.43;0.43;;;5.60;99.90;5.20;99194.00;;;;5071976;28;20207;-76
2021/12/08 05:54:50;;;;;;;2.47;0.97;;;5.60;99.90;5.00;99153.00;;;;5072035;28;20272;-75
2021/12/08 05:57:22;;;;;;;0.40;0.40;;;5.50;99.90;5.00;99198.00;;;;5055196;28;20210;-77
2021/12/08 05:59:50;;;;;;;0.40;0.40;;;5.50;99.90;5.00;99209.00;;;;5073525;28;20681;-75
2021/12/08 06:02:38;;;;;;;1.20;1.00;;;5.50;99.90;5.00;99223.00;;;;5071175;28;20303;-74
2021/12/08 06:05:11;;;;;;;0.90;0.90;;;5.50;99.90;4.90;99206.00;;;;5071414;28;20190;-74
2021/12/08 06:07:39;;;;;;;0.40;0.40;;;5.40;99.90;5.10;99188.00;;;;5071583;28;20211;-76
2021/12/08 06:10:18;;;;;;;0.70;0.70;;;5.50;99.90;5.00;99226.00;;;;5072644;28;20692;-77
2021/12/08 06:12:45;;;;;;;0.70;0.47;;;5.40;99.90;5.10;99217.00;;;;5071834;28;20299;-77
2021/12/08 06:15:15;;;;;;;0.30;0.30;;;5.50;99.90;5.20;99237.00;;;;5072658;28;20187;-77
2021/12/08 06:17:41;;;;;;;0.33;0.33;;;5.50;99.90;4.90;99245.00;;;;5071973;28;20171;-78
2021/12/08 06:20:14;;;;;;;0.70;0.70;;;5.40;99.90;5.00;99237.00;;;;5071479;28;20687;-77
2021/12/08 06:22:48;;;;;;;0.40;0.40;;;5.40;99.90;5.10;99233.00;;;;5070480;28;20213;-77
2021/12/08 06:25:24;;;;;;;0.60;0.60;;;5.40;99.90;4.70;99244.00;;;;5073545;28;20203;-76
2021/12/08 06:27:56;;;;;;;0.40;0.40;;;5.40;99.90;5.00;99244.00;;;;5072242;28;20159;-76
2021/12/08 06:30:33;;;;;;;0.80;0.80;;;5.30;99.90;4.80;99203.00;;;;5073310;28;20161;-76
2021/12/08 06:33:05;;;;;;;0.50;0.50;;;5.30;99.90;4.70;99241.00;;;;5070850;28;20669;-76
2021/12/08 06:35:41;;;;;;;0.40;0.40;;;5.20;99.90;4.70;99241.00;;;;5070699;28;20203;-76
2021/12/08 06:38:08;;;;;;;0.50;0.50;;;5.10;99.90;4.90;99245.00;;;;5071905;28;20614;-77
2021/12/08 06:40:53;;;;;;;0.40;0.40;;;5.20;99.90;4.80;99225.00;;;;5071700;28;20178;-76
2021/12/08 06:43:28;;;;;;;0.40;0.40;;;5.20;99.90;4.90;99260.00;;;;5071412;28;20194;-76
2021/12/08 06:45:57;;;;;;;0.57;0.50;;;5.20;99.90;4.70;99246.00;;;;5071480;28;20184;-76
2021/12/08 06:48:30;;;;;;;0.43;0.43;;;5.20;99.90;5.00;99257.00;;;;5072290;28;20166;-76
2021/12/08 06:51:06;;;;;;;0.60;0.60;;;5.30;99.90;5.10;99261.00;;;;5071303;28;20174;-76
2021/12/08 06:53:32;;;;;;;0.40;0.40;;;5.30;99.90;4.80;99266.00;;;;5056240;28;20197;-78
2021/12/08 06:56:14;;;;;;;1.43;0.60;;;5.20;99.90;4.50;99250.00;;;;5076015;28;20178;-77
2021/12/08 06:58:47;;;;;;;0.50;0.50;;;5.20;99.90;4.70;99271.00;;;;5076042;28;20180;-77
2021/12/08 07:04:36;;;;;;;0.33;0.33;;;5.10;99.90;4.80;99268.00;;;;5075891;28;20172;-77
2021/12/08 07:07:15;;;;;;;0.40;0.40;;;5.10;99.90;4.70;99235.00;;;;5073445;28;20200;-77
2021/12/08 07:09:57;;;;;;;0.40;0.40;;;5.20;99.90;4.70;99263.00;;;;5075188;28;20655;-77
2021/12/08 07:12:38;;;;;;;0.50;0.50;;;5.10;99.90;4.80;99279.00;;;;5092253;28;20666;-77
2021/12/08 07:15:35;;;;;;;0.40;0.40;;;5.10;99.90;4.90;99235.00;;;;5075504;28;20531;-76
2021/12/08 07:18:10;;;;;;;0.40;0.40;;;5.10;99.90;4.70;99273.00;;;;5074964;28;20169;-77
2021/12/08 07:20:45;;;;;;;0.50;0.50;;;5.10;99.90;4.70;99287.00;;;;5074964;28;20170;-77
2021/12/08 07:23:36;;;;;;;1.00;1.00;;;5.10;99.90;4.70;99283.00;;;;5058475;28;20189;-77
2021/12/08 07:26:16;;;;;;;0.67;0.67;;;5.10;99.90;4.60;99284.00;;;;5059512;28;20200;-76
2021/12/08 07:28:47;;;;;;;0.40;0.40;;;5.10;99.90;4.60;99258.00;;;;5074425;28;20216;-77
2021/12/08 07:31:25;;;;;;;0.50;0.50;;;5.10;99.90;4.70;99298.00;;;;5076450;28;20689;-77
2021/12/08 07:34:03;;;;;;;0.80;0.80;;;5.10;99.90;4.80;99289.00;;;;5074698;28;20260;-76
2021/12/08 07:36:33;;;;;;;0.50;0.50;;;5.20;99.90;4.70;99318.00;;;;5062952;28;20242;-77
2021/12/08 07:39:09;;;;;;;3.00;1.40;;;5.20;99.90;4.60;99316.00;;;;5041705;28;20208;-76
2021/12/08 07:41:40;;;;;;;0.40;0.40;;;5.20;99.90;4.70;99300.00;;;;5074517;28;20612;-77
2021/12/08 07:44:13;;;;;;;0.93;0.80;;;5.20;99.90;4.70;99321.00;;;;5073381;28;20178;-76
2021/12/08 07:46:48;;;;;;;2.30;0.80;;;5.10;99.90;4.70;99317.00;;;;5074986;28;20649;-76
2021/12/08 07:49:27;;;;;;;0.97;0.80;;;5.10;99.90;4.70;99304.00;;;;5057966;28;20268;-76
2021/12/08 07:52:09;;;;;;;0.40;0.40;;;5.10;99.90;4.70;99323.00;;;;5074872;28;20636;-75
2021/12/08 07:54:41;;;;;;;3.53;0.87;;;5.10;99.90;4.70;99267.00;;;;5073074;28;20217;-74
2021/12/08 07:57:20;;;;;;;0.30;0.30;;;5.20;99.90;4.90;99281.00;;;;5074432;28;20635;-75
2021/12/08 07:59:58;;;;;;;0.40;0.40;;;5.20;99.90;4.70;99323.00;;;;5074711;28;20270;-75
2021/12/08 08:02:31;;;;;;;0.30;0.30;;;5.20;99.90;4.80;99323.00;;;;5073372;28;20282;-75
2021/12/08 08:05:05;;;;;;;0.50;0.50;;;5.20;99.90;4.70;99316.00;;;;5056899;28;20634;-74
2021/12/08 08:07:37;;;;;;;0.30;0.30;;;5.20;99.90;4.80;99315.00;;;;5074105;28;20182;-75
2021/12/08 08:10:12;;;;;;;1.90;1.20;;;5.30;99.90;4.70;99329.00;;;;5073784;28;20265;-76
2021/12/08 08:12:41;;;;;;;0.50;0.50;;;5.20;99.90;4.80;99319.00;;;;5071457;28;20197;-76
2021/12/08 08:15:16;;;;;;;0.40;0.40;;;5.30;99.90;5.00;99324.00;;;;5051951;28;20212;-70
2021/12/08 08:17:44;;;;;;;1.17;1.17;;;5.30;99.90;5.00;99314.00;;;;5040705;28;20182;-76
2021/12/08 08:20:30;;;;;;;0.77;0.60;;;5.40;99.90;4.90;99266.00;;;;5040824;28;20252;-76
2021/12/08 08:23:04;;;;;;;0.60;0.60;;;5.40;99.90;4.90;99329.00;;;;5037978;28;20197;-76
2021/12/08 08:25:44;;;;;;;0.67;0.60;;;5.40;99.90;4.80;99326.00;;;;5040754;28;20186;-76
2021/12/08 08:28:16;;;;;;;0.63;0.43;;;5.40;99.90;5.00;99322.00;;;;5057798;28;20192;-76
2021/12/08 08:31:09;;;;;;;2.60;1.10;;;5.40;99.90;5.00;99314.00;;;;5040623;28;20242;-76
2021/12/08 08:33:38;;;;;;;0.33;0.33;;;5.40;99.90;5.00;99309.00;;;;5056998;28;20648;-76
2021/12/08 08:36:17;;;;;;;0.53;0.50;;;5.50;99.90;5.00;99319.00;;;;5055280;28;20270;-76
2021/12/08 08:38:59;;;;;;;0.80;0.60;;;5.50;99.90;5.10;99315.00;;;;5045190;28;20189;-76
2021/12/08 08:41:44;;;;;;;1.23;0.53;;;5.60;99.90;5.10;99317.00;;;;5056918;28;20183;-77
2021/12/08 08:44:58;;;;;;;0.33;0.33;;;5.60;99.90;5.30;99325.00;;;;5057418;28;20643;-76
2021/12/08 08:47:41;;;;;;;0.50;0.50;;;5.70;99.90;5.30;99315.00;;;;5046809;28;20185;-76
2021/12/08 08:50:13;;;;;;;2.17;0.60;;;5.70;99.90;5.30;99320.00;;;;5053480;28;20175;-77
2021/12/08 08:52:49;;;;;;;0.30;0.30;;;5.70;99.90;5.30;99324.00;;;;5036910;28;20249;-77
2021/12/08 08:55:58;;;;;;;1.37;1.23;;;5.80;99.90;5.20;99323.00;;;;5041255;28;20304;-75
2021/12/08 08:58:27;;;;;;;2.70;0.60;;;5.80;99.90;5.40;99296.00;;;;5039774;28;20224;-75
2021/12/08 09:00:59;;;;;;;0.60;0.60;;;5.80;99.90;5.30;99308.00;;;;5049118;28;20190;-75
2021/12/08 09:03:34;;;;;;;0.60;0.60;;;5.90;99.90;5.30;99291.00;;;;5037011;28;20256;-76
2021/12/08 09:06:24;;;;;;;0.60;0.60;;;5.90;99.90;5.50;99327.00;;;;5036549;28;20556;-76
2021/12/08 09:08:50;;;;;;;0.50;0.50;;;5.90;99.90;5.60;99338.00;;;;5052719;28;20186;-76
2021/12/08 09:11:35;;;;;;;1.10;0.50;;;6.00;99.90;5.80;99331.00;;;;5045901;28;20636;-75
2021/12/08 09:14:19;;;;;;;1.60;0.63;;;6.10;99.90;5.80;99322.00;;;;5056785;28;20553;-75
2021/12/08 09:17:01;;;;;;;0.40;0.40;;;6.10;99.90;5.60;99319.00;;;;5038299;28;20191;-75
2021/12/08 09:19:36;;;;;;;0.60;0.60;;;6.10;99.90;5.80;99337.00;;;;5039837;28;20588;-75
2021/12/08 09:22:15;;;;;;;0.20;0.20;;;6.20;99.90;6.00;99332.00;;;;5073995;28;20179;-75
2021/12/08 09:25:15;;;;;;;0.67;0.67;;;6.30;99.90;5.80;99346.00;;;;5055008;28;20686;-75
2021/12/08 09:27:48;;;;;;;0.30;0.30;;;6.20;99.90;5.80;99347.00;;;;5055939;28;20176;-75
2021/12/08 09:30:44;;;;;;;0.77;0.70;;;6.30;99.90;5.70;99369.00;;;;5055484;28;20230;-72
2021/12/08 09:33:20;;;;;;;0.40;0.40;;;6.20;99.90;5.90;99352.00;;;;5055728;28;20221;-81
2021/12/08 09:35:56;;;;;;;0.50;0.50;;;6.20;99.90;5.60;99357.00;;;;5054647;28;20189;-82
2021/12/08 09:38:38;;;;;;;1.03;0.83;;;6.20;99.90;5.80;99368.00;;;;5031002;28;20652;-81
2021/12/08 09:41:18;;;;;;;0.77;0.67;;;6.20;99.90;6.00;99378.00;;;;5046494;28;20218;-83
2021/12/08 09:43:54;;;;;;;2.30;0.43;;;6.30;99.90;6.00;99352.00;;;;5046686;28;20198;-81
2021/12/08 09:46:40;;;;;;;0.47;0.47;;;6.40;99.90;5.80;99351.00;;;;5055225;28;20184;-82
2021/12/08 09:49:09;;;;;;;0.57;0.57;;;6.30;99.90;6.30;99382.00;;;;5037765;28;20596;-82
2021/12/08 09:51:38;;;;;;;0.93;0.60;;;6.50;99.90;6.30;99402.00;;;;5055504;28;20211;-82
2021/12/08 09:54:05;;;;;;;0.30;0.30;;;6.60;99.90;6.10;99382.00;;;;5073552;28;20704;-81
2021/12/08 09:56:33;;;;;;;0.30;0.30;;;6.50;99.90;6.00;99377.00;;;;5055932;28;20270;-82
2021/12/08 09:59:01;;;;;;;0.30;0.30;;;6.40;99.90;5.90;99381.00;;;;5055572;28;20189;-81
2021/12/08 10:01:28;;;;;;;1.27;0.63;;;6.40;99.90;6.20;99380.00;;;;5055798;28;20211;-74
2021/12/08 10:03:55;;;;;;;1.00;0.67;;;6.50;99.90;6.00;99373.00;;;;5055553;28;20644;-74
2021/12/08 10:06:28;;;;;;;0.40;0.40;;;6.50;99.90;6.10;99382.00;;;;5072510;28;20245;-74
2021/12/08 10:08:58;;;;;;;0.33;0.30;;;6.40;99.90;6.00;99372.00;;;;5055273;28;20237;-74
2021/12/08 10:11:27;;;;;;;0.30;0.30;;;6.50;99.90;6.30;99379.00;;;;5038636;28;20190;-74
2021/12/08 10:13:59;;;;;;;0.20;0.20;;;6.50;99.90;6.20;99366.00;;;;5037355;28;20283;-79
2021/12/08 10:16:26;;;;;;;0.30;0.30;;;6.50;99.90;6.50;99363.00;;;;5052354;28;20177;-79
2021/12/08 10:18:55;;;;;;;0.50;0.50;;;6.70;99.90;6.10;99369.00;;;;5051926;28;20172;-79
2021/12/08 10:39:52;;;;;;;0.20;0.20;;;6.60;99.90;7.60;99403.00;;;;5108001;28;20227;-81
2021/12/08 10:42:28;;;;;;;0.70;0.70;;;7.30;99.90;7.00;99379.00;;;;5027452;28;20718;-79
2021/12/08 10:45:10;;;;;;;0.53;0.53;;;7.50;99.90;7.20;99403.00;;;;5085065;28;20213;-79
2021/12/08 10:47:47;;;;;;;0.20;0.20;;;7.40;99.90;7.10;99403.00;;;;5092179;28;20606;-79
2021/12/08 10:56:11;;;;;;;0.77;0.53;;;7.10;99.90;6.30;99395.00;;;;5110194;28;20221;-79
2021/12/08 10:58:49;;;;;;;0.47;0.47;;;6.70;99.90;6.40;99398.00;;;;5091894;28;20179;-79
2021/12/08 11:01:22;;;;;;;0.50;0.50;;;6.80;99.90;6.70;99394.00;;;;5108515;28;20181;-79
2021/12/08 11:03:52;;;;;;;2.77;1.70;;;7.00;99.90;6.60;99390.00;;;;5108295;28;20185;-79
2021/12/08 11:06:21;;;;;;;0.53;0.53;;;7.00;99.90;6.80;99372.00;;;;5108852;28;20282;-79
2021/12/08 11:08:51;;;;;;;0.30;0.30;;;7.00;99.90;7.20;99363.00;;;;5110257;28;20630;-79
2021/12/08 11:11:28;;;;;;;2.20;0.87;;;7.20;99.90;6.70;99407.00;;;;5108068;28;20207;-79
2021/12/08 11:13:59;;;;;;;0.30;0.30;;;7.30;99.90;7.10;99407.00;;;;5091170;28;20207;-79
2021/12/08 11:16:34;;;;;;;0.50;0.50;;;7.40;99.90;7.70;99410.00;;;;5109608;28;20175;-79
2021/12/08 11:19:10;;;;;;;0.30;0.30;;;7.70;99.90;7.50;99390.00;;;;5108926;28;20168;-75
2021/12/08 11:21:58;;;;;;;0.20;0.20;;;7.70;99.90;7.80;99406.00;;;;5110151;28;20183;-73
2021/12/08 11:24:34;;;;;;;0.73;0.73;;;7.80;99.90;7.50;99401.00;;;;5108851;28;20180;-69
2021/12/08 11:27:07;;;;;;;0.30;0.30;;;7.90;99.90;7.90;99424.00;;;;5107567;28;20172;-68
2021/12/08 11:29:42;;;;;;;0.30;0.30;;;8.00;99.90;7.60;99424.00;;;;5108992;28;20247;-69
2021/12/08 11:32:12;;;;;;;0.90;0.90;;;7.90;99.90;8.30;99416.00;;;;5107904;28;20222;-68
2021/12/08 11:34:47;;;;;;;5.10;0.87;;;8.30;99.90;7.40;99410.00;;;;5108560;28;20185;-68
2021/12/08 11:37:20;;;;;;;0.30;0.30;;;7.90;99.90;8.50;99429.00;;;;5091717;28;20648;-68
2021/12/08 11:39:51;;;;;;;0.20;0.20;;;8.20;99.90;8.40;99433.00;;;;5108022;28;20181;-68
2021/12/08 11:42:22;;;;;;;0.30;0.30;;;8.50;99.90;7.50;99382.00;;;;5108233;28;20172;-68
2021/12/08 11:44:52;;;;;;;0.30;0.30;;;8.00;99.90;7.40;99401.00;;;;5090413;28;20287;-68
2021/12/08 11:47:34;;;;;;;0.40;0.40;;;7.70;99.90;6.80;99426.00;;;;5074251;28;20191;-68
2021/12/08 11:50:12;;;;;;;0.20;0.20;;;7.40;99.90;7.50;99433.00;;;;5094736;28;20556;-68
2021/12/08 11:52:50;;;;;;;0.43;0.43;;;7.50;99.90;7.20;99423.00;;;;5094926;28;20212;-68
2021/12/08 11:55:19;;;;;;;0.50;0.50;;;7.60;99.90;7.10;99423.00;;;;5076623;28;20181;-68
2021/12/08 11:57:55;;;;;;;0.30;0.30;;;7.50;99.90;7.40;99427.00;;;;5094988;28;20625;-69
2021/12/08 12:00:28;;;;;;;0.30;0.30;;;7.60;99.90;7.20;99419.00;;;;5096117;28;20240;-69
2021/12/08 12:03:01;;;;;;;0.20;0.20;;;7.50;99.90;8.30;99423.00;;;;5094843;28;20196;-69
2021/12/08 12:05:47;;;;;;;0.83;0.40;;;7.90;99.90;8.90;99451.00;;;;5077473;28;20216;-69
2021/12/08 12:08:18;;;;;;;0.30;0.30;;;8.50;99.90;8.30;99443.00;;;;5094800;28;20192;-69
2021/12/08 12:10:49;;;;;;;0.20;0.20;;;8.40;99.90;7.90;99440.00;;;;5094108;28;20190;-69
2021/12/08 12:13:15;;;;;;;0.77;0.37;;;8.10;99.90;7.80;99421.00;;;;5093975;28;20181;-69
2021/12/08 12:15:47;;;;;;;0.20;0.20;;;8.10;99.90;8.80;99436.00;;;;5095268;28;20571;-68
2021/12/08 12:18:20;;;;;;;0.33;0.33;;;8.40;99.90;8.00;99392.00;;;;5093634;28;20216;-69
2021/12/08 12:21:22;;;;;;;0.27;0.27;;;8.10;99.90;8.10;99437.00;;;;5077685;28;20666;-69
2021/12/08 12:24:12;;;;;;;0.30;0.30;;;8.20;99.90;8.20;99451.00;;;;5077046;28;20652;-69
2021/12/08 12:27:02;;;;;;;0.30;0.30;;;8.30;99.90;7.40;99447.00;;;;5076875;28;20201;-69
2021/12/08 12:29:51;;;;;;;2.00;0.70;;;7.80;99.90;7.70;99457.00;;;;5085153;28;20196;-68
2021/12/08 12:32:47;;;;;;;0.20;0.20;;;7.80;99.90;7.00;99448.00;;;;5094547;28;20223;-69
2021/12/08 12:35:25;;;;;;;0.20;0.20;;;7.60;99.90;7.40;99468.00;;;;5077112;28;20189;-68
2021/12/08 12:38:09;;;;;;;0.37;0.37;;;7.50;99.90;7.90;99444.00;;;;5094213;28;20199;-68
2021/12/08 12:40:47;;;;;;;0.50;0.50;;;7.90;99.90;7.20;99464.00;;;;5085455;28;20188;-68
2021/12/08 12:43:27;;;;;;;1.03;0.40;;;7.60;99.90;7.30;99463.00;;;;5092775;28;20195;-68
2021/12/08 12:46:12;;;;;;;0.20;0.20;;;7.60;99.90;8.00;99439.00;;;;5091878;28;20157;-69
2021/12/08 12:48:50;;;;;;;0.50;0.50;;;7.80;99.90;8.30;99484.00;;;;5073536;28;20177;-68
2021/12/08 12:51:17;;;;;;;0.40;0.40;;;8.20;99.90;7.60;99484.00;;;;5073502;28;20285;-68
2021/12/08 12:53:56;;;;;;;0.40;0.40;;;7.90;99.90;7.30;99477.00;;;;5072889;28;20281;-68
2021/12/08 12:56:34;;;;;;;0.90;0.90;;;7.80;99.90;7.00;99475.00;;;;5072810;28;20171;-69
2021/12/08 12:59:15;;;;;;;0.40;0.40;;;7.60;99.90;7.00;99484.00;;;;5073403;28;20585;-68
2021/12/08 13:01:46;;;;;;;0.43;0.43;;;7.40;99.90;6.60;99464.00;;;;5073132;28;20216;-69